sensor_id;sensor_type;location;lat;lon;timestamp;temperature;humidity
2851;DHT22;1433;49.976;8.342;2022-07-29T00:01:45;22.40;99.90
2851;DHT22;1433;49.976;8.342;2022-07-29T00:04:12;22.30;99.90
2851;DHT22;1433;49.976;8.342;2022-07-29T00:06:38;22.30;99.90
2851;DHT22;1433;49.976;8.342;2022-07-29T00:09:04;22.30;99.90
2851;DHT22;1433;49.976;8.342;2022-07-29T00:11:31;22.20;99.90
2851;DHT22;1433;49.976;8.342;2022-07-29T00:13:57;22.10;99.90
2851;DHT22;1433;49.976;8.342;2022-07-29T00:16:23;21.80;99.90
2851;DHT22;1433;49.976;8.342;2022-07-29T00:18:49;21.60;99.90
2851;DHT22;1433;49.976;8.342;2022-07-29T00:21:15;21.50;99.90
2851;DHT22;1433;49.976;8.342;2022-07-29T00:23:42;21.50;99.90
2851;DHT22;1433;49.976;8.342;2022-07-29T00:26:08;21.50;99.90
2851;DHT22;1433;49.976;8.342;2022-07-29T00:28:34;21.60;99.90
2851;DHT22;1433;49.976;8.342;2022-07-29T00:31:00;21.60;99.90
2851;DHT22;1433;49.976;8.342;2022-07-29T00:33:28;21.60;99.90
2851;DHT22;1433;49.976;8.342;2022-07-29T00:35:54;21.70;99.90
2851;DHT22;1433;49.976;8.342;2022-07-29T00:38:21;21.70;99.90
2851;DHT22;1433;49.976;8.342;2022-07-29T00:40:47;21.70;99.90
2851;DHT22;1433;49.976;8.342;2022-07-29T00:43:13;21.70;99.90
2851;DHT22;1433;49.976;8.342;2022-07-29T00:45:42;21.70;99.90
2851;DHT22;1433;49.976;8.342;2022-07-29T00:48:09;21.80;99.90
2851;DHT22;1433;49.976;8.342;2022-07-29T00:50:36;21.80;99.90
2851;DHT22;1433;49.976;8.342;2022-07-29T00:53:04;21.80;99.90
2851;DHT22;1433;49.976;8.342;2022-07-29T00:55:31;21.90;99.90
2851;DHT22;1433;49.976;8.342;2022-07-29T00:57:58;22.00;99.90
2851;DHT22;1433;49.976;8.342;2022-07-29T01:00:26;22.00;99.90
2851;DHT22;1433;49.976;8.342;2022-07-29T01:02:53;22.00;99.90
2851;DHT22;1433;49.976;8.342;2022-07-29T01:05:21;22.00;99.90
2851;DHT22;1433;49.976;8.342;2022-07-29T01:07:51;22.00;99.90
2851;DHT22;1433;49.976;8.342;2022-07-29T01:10:18;22.10;99.90
2851;DHT22;1433;49.976;8.342;2022-07-29T01:12:47;22.10;99.90
2851;DHT22;1433;49.976;8.342;2022-07-29T01:15:14;22.10;99.90
2851;DHT22;1433;49.976;8.342;2022-07-29T01:31:47;21.80;99.90
2851;DHT22;1433;49.976;8.342;2022-07-29T01:34:17;21.50;99.90
2851;DHT22;1433;49.976;8.342;2022-07-29T01:36:48;21.30;99.90
2851;DHT22;1433;49.976;8.342;2022-07-29T01:39:27;21.10;99.90
2851;DHT22;1433;49.976;8.342;2022-07-29T01:42:01;21.00;99.90
2851;DHT22;1433;49.976;8.342;2022-07-29T01:44:33;21.00;99.90
2851;DHT22;1433;49.976;8.342;2022-07-29T01:47:05;21.10;99.90
2851;DHT22;1433;49.976;8.342;2022-07-29T01:49:32;20.40;99.90
2851;DHT22;1433;49.976;8.342;2022-07-29T01:52:08;19.80;99.90
2851;DHT22;1433;49.976;8.342;2022-07-29T01:54:42;19.60;99.90
2851;DHT22;1433;49.976;8.342;2022-07-29T01:57:08;19.50;99.90
2851;DHT22;1433;49.976;8.342;2022-07-29T01:59:36;19.30;99.90
2851;DHT22;1433;49.976;8.342;2022-07-29T02:02:04;19.30;99.90
2851;DHT22;1433;49.976;8.342;2022-07-29T02:04:35;19.40;99.90
2851;DHT22;1433;49.976;8.342;2022-07-29T02:07:05;19.60;99.90
2851;DHT22;1433;49.976;8.342;2022-07-29T02:09:34;19.60;99.90
2851;DHT22;1433;49.976;8.342;2022-07-29T02:12:02;19.60;99.90
2851;DHT22;1433;49.976;8.342;2022-07-29T02:14:32;19.50;99.90
2851;DHT22;1433;49.976;8.342;2022-07-29T02:17:00;19.40;99.90
2851;DHT22;1433;49.976;8.342;2022-07-29T02:19:29;19.30;99.90
2851;DHT22;1433;49.976;8.342;2022-07-29T02:21:57;19.30;99.90
2851;DHT22;1433;49.976;8.342;2022-07-29T02:24:25;19.30;99.90
2851;DHT22;1433;49.976;8.342;2022-07-29T02:26:53;19.40;99.90
2851;DHT22;1433;49.976;8.342;2022-07-29T02:29:22;19.40;99.90
2851;DHT22;1433;49.976;8.342;2022-07-29T02:31:50;19.50;99.90
2851;DHT22;1433;49.976;8.342;2022-07-29T02:34:18;19.60;99.90
2851;DHT22;1433;49.976;8.342;2022-07-29T02:36:45;19.60;99.90
2851;DHT22;1433;49.976;8.342;2022-07-29T02:39:12;19.60;99.90
2851;DHT22;1433;49.976;8.342;2022-07-29T02:41:43;19.50;99.90
2851;DHT22;1433;49.976;8.342;2022-07-29T02:44:15;19.50;99.90
2851;DHT22;1433;49.976;8.342;2022-07-29T02:49:16;19.30;99.90
2851;DHT22;1433;49.976;8.342;2022-07-29T02:51:53;19.30;99.90
2851;DHT22;1433;49.976;8.342;2022-07-29T02:54:25;19.30;99.90
2851;DHT22;1433;49.976;8.342;2022-07-29T02:56:51;19.30;99.90
2851;DHT22;1433;49.976;8.342;2022-07-29T02:59:24;19.20;99.90
2851;DHT22;1433;49.976;8.342;2022-07-29T03:01:52;19.20;99.90
2851;DHT22;1433;49.976;8.342;2022-07-29T03:04:20;19.20;99.90
2851;DHT22;1433;49.976;8.342;2022-07-29T03:06:49;19.20;99.90
2851;DHT22;1433;49.976;8.342;2022-07-29T03:09:17;19.20;99.90
2851;DHT22;1433;49.976;8.342;2022-07-29T03:11:44;19.20;99.90
2851;DHT22;1433;49.976;8.342;2022-07-29T03:14:12;19.20;99.90
2851;DHT22;1433;49.976;8.342;2022-07-29T03:16:39;19.20;99.90
2851;DHT22;1433;49.976;8.342;2022-07-29T03:19:05;19.20;99.90
2851;DHT22;1433;49.976;8.342;2022-07-29T03:21:31;19.20;99.90
2851;DHT22;1433;49.976;8.342;2022-07-29T03:23:58;19.20;99.90
2851;DHT22;1433;49.976;8.342;2022-07-29T03:26:24;19.20;99.90
2851;DHT22;1433;49.976;8.342;2022-07-29T03:28:50;19.30;99.90
2851;DHT22;1433;49.976;8.342;2022-07-29T03:31:16;19.30;99.90
2851;DHT22;1433;49.976;8.342;2022-07-29T03:33:43;19.30;99.90
2851;DHT22;1433;49.976;8.342;2022-07-29T03:36:09;19.40;99.90
2851;DHT22;1433;49.976;8.342;2022-07-29T03:38:35;19.40;99.90
2851;DHT22;1433;49.976;8.342;2022-07-29T03:41:07;19.40;99.90
2851;DHT22;1433;49.976;8.342;2022-07-29T03:43:35;19.40;99.90
2851;DHT22;1433;49.976;8.342;2022-07-29T03:46:03;19.40;99.90
2851;DHT22;1433;49.976;8.342;2022-07-29T03:48:32;19.40;99.90
2851;DHT22;1433;49.976;8.342;2022-07-29T03:51:01;19.40;99.90
2851;DHT22;1433;49.976;8.342;2022-07-29T03:53:28;19.40;99.90
2851;DHT22;1433;49.976;8.342;2022-07-29T03:55:57;19.30;99.90
2851;DHT22;1433;49.976;8.342;2022-07-29T03:58:26;19.30;99.90
2851;DHT22;1433;49.976;8.342;2022-07-29T04:00:54;19.20;99.90
2851;DHT22;1433;49.976;8.342;2022-07-29T04:03:21;19.10;99.90
2851;DHT22;1433;49.976;8.342;2022-07-29T04:06:03;19.10;99.90
2851;DHT22;1433;49.976;8.342;2022-07-29T04:08:32;19.10;99.90
2851;DHT22;1433;49.976;8.342;2022-07-29T04:10:59;19.00;99.90
2851;DHT22;1433;49.976;8.342;2022-07-29T04:13:25;18.90;99.90
2851;DHT22;1433;49.976;8.342;2022-07-29T04:15:52;18.90;99.90
2851;DHT22;1433;49.976;8.342;2022-07-29T04:18:18;18.80;99.90
2851;DHT22;1433;49.976;8.342;2022-07-29T04:20:44;18.80;99.90
2851;DHT22;1433;49.976;8.342;2022-07-29T04:23:10;18.80;99.90
2851;DHT22;1433;49.976;8.342;2022-07-29T04:25:37;18.80;99.90
2851;DHT22;1433;49.976;8.342;2022-07-29T04:28:04;18.70;99.90
2851;DHT22;1433;49.976;8.342;2022-07-29T04:30:31;18.70;99.90
2851;DHT22;1433;49.976;8.342;2022-07-29T04:32:58;18.70;99.90
2851;DHT22;1433;49.976;8.342;2022-07-29T04:35:27;18.70;99.90
2851;DHT22;1433;49.976;8.342;2022-07-29T04:37:53;18.70;99.90
2851;DHT22;1433;49.976;8.342;2022-07-29T04:40:20;18.70;99.90
2851;DHT22;1433;49.976;8.342;2022-07-29T04:42:46;18.70;99.90
2851;DHT22;1433;49.976;8.342;2022-07-29T04:45:12;18.70;99.90
2851;DHT22;1433;49.976;8.342;2022-07-29T04:47:39;18.70;99.90
2851;DHT22;1433;49.976;8.342;2022-07-29T04:50:05;18.70;99.90
2851;DHT22;1433;49.976;8.342;2022-07-29T04:52:32;18.70;99.90
2851;DHT22;1433;49.976;8.342;2022-07-29T04:55:00;18.70;99.90
2851;DHT22;1433;49.976;8.342;2022-07-29T04:57:27;18.80;99.90
2851;DHT22;1433;49.976;8.342;2022-07-29T04:59:53;18.80;99.90
2851;DHT22;1433;49.976;8.342;2022-07-29T05:02:19;18.80;99.90
2851;DHT22;1433;49.976;8.342;2022-07-29T05:04:45;18.80;99.90
2851;DHT22;1433;49.976;8.342;2022-07-29T05:07:11;18.80;99.90
2851;DHT22;1433;49.976;8.342;2022-07-29T05:09:37;18.80;99.90
2851;DHT22;1433;49.976;8.342;2022-07-29T05:12:04;18.70;99.90
2851;DHT22;1433;49.976;8.342;2022-07-29T05:14:30;18.80;99.90
2851;DHT22;1433;49.976;8.342;2022-07-29T05:16:56;18.80;99.90
2851;DHT22;1433;49.976;8.342;2022-07-29T05:19:23;18.70;99.90
2851;DHT22;1433;49.976;8.342;2022-07-29T05:21:49;18.80;99.90
2851;DHT22;1433;49.976;8.342;2022-07-29T05:24:16;18.80;99.90
2851;DHT22;1433;49.976;8.342;2022-07-29T05:26:42;18.80;99.90
2851;DHT22;1433;49.976;8.342;2022-07-29T05:29:08;18.90;99.90
2851;DHT22;1433;49.976;8.342;2022-07-29T05:31:34;18.90;99.90
2851;DHT22;1433;49.976;8.342;2022-07-29T05:34:00;19.00;99.90
2851;DHT22;1433;49.976;8.342;2022-07-29T05:36:26;19.10;99.90
2851;DHT22;1433;49.976;8.342;2022-07-29T05:38:53;19.10;99.90
2851;DHT22;1433;49.976;8.342;2022-07-29T05:41:19;19.20;99.90
2851;DHT22;1433;49.976;8.342;2022-07-29T05:43:45;19.20;99.90
2851;DHT22;1433;49.976;8.342;2022-07-29T05:46:12;19.30;99.90
2851;DHT22;1433;49.976;8.342;2022-07-29T05:48:39;19.30;99.90
2851;DHT22;1433;49.976;8.342;2022-07-29T05:51:07;19.30;99.90
2851;DHT22;1433;49.976;8.342;2022-07-29T05:53:36;19.40;99.90
2851;DHT22;1433;49.976;8.342;2022-07-29T05:56:03;19.50;99.90
2851;DHT22;1433;49.976;8.342;2022-07-29T05:58:30;19.60;99.90
2851;DHT22;1433;49.976;8.342;2022-07-29T06:00:57;19.60;99.90
2851;DHT22;1433;49.976;8.342;2022-07-29T06:03:26;19.70;99.90
2851;DHT22;1433;49.976;8.342;2022-07-29T06:05:52;19.80;99.90
2851;DHT22;1433;49.976;8.342;2022-07-29T06:08:18;19.80;99.90
2851;DHT22;1433;49.976;8.342;2022-07-29T06:10:44;20.00;99.90
2851;DHT22;1433;49.976;8.342;2022-07-29T06:13:12;19.90;99.90
2851;DHT22;1433;49.976;8.342;2022-07-29T06:15:38;20.00;99.90
2851;DHT22;1433;49.976;8.342;2022-07-29T06:18:04;20.10;99.90
2851;DHT22;1433;49.976;8.342;2022-07-29T06:20:32;20.10;99.90
2851;DHT22;1433;49.976;8.342;2022-07-29T06:22:59;20.20;99.90
2851;DHT22;1433;49.976;8.342;2022-07-29T06:25:26;20.30;99.90
2851;DHT22;1433;49.976;8.342;2022-07-29T06:27:55;20.30;99.90
2851;DHT22;1433;49.976;8.342;2022-07-29T06:30:21;20.40;99.90
2851;DHT22;1433;49.976;8.342;2022-07-29T06:32:47;20.50;99.90
2851;DHT22;1433;49.976;8.342;2022-07-29T06:35:13;20.60;99.90
2851;DHT22;1433;49.976;8.342;2022-07-29T06:37:40;20.70;99.90
2851;DHT22;1433;49.976;8.342;2022-07-29T06:40:06;20.80;99.90
2851;DHT22;1433;49.976;8.342;2022-07-29T06:42:35;20.90;99.90
2851;DHT22;1433;49.976;8.342;2022-07-29T06:45:01;21.10;99.90
2851;DHT22;1433;49.976;8.342;2022-07-29T06:47:27;21.20;99.90
2851;DHT22;1433;49.976;8.342;2022-07-29T06:49:53;21.20;99.90
2851;DHT22;1433;49.976;8.342;2022-07-29T06:52:19;21.30;99.90
2851;DHT22;1433;49.976;8.342;2022-07-29T06:54:46;21.40;99.90
2851;DHT22;1433;49.976;8.342;2022-07-29T06:57:13;21.40;99.90
2851;DHT22;1433;49.976;8.342;2022-07-29T06:59:40;21.50;99.90
2851;DHT22;1433;49.976;8.342;2022-07-29T07:02:06;21.60;99.90
2851;DHT22;1433;49.976;8.342;2022-07-29T07:04:32;21.70;99.90
2851;DHT22;1433;49.976;8.342;2022-07-29T07:06:59;21.80;99.90
2851;DHT22;1433;49.976;8.342;2022-07-29T07:09:26;21.90;99.90
2851;DHT22;1433;49.976;8.342;2022-07-29T07:11:52;21.90;99.90
2851;DHT22;1433;49.976;8.342;2022-07-29T07:14:18;21.90;99.90
2851;DHT22;1433;49.976;8.342;2022-07-29T07:16:44;22.00;99.90
2851;DHT22;1433;49.976;8.342;2022-07-29T07:19:10;22.00;99.90
2851;DHT22;1433;49.976;8.342;2022-07-29T07:21:37;22.10;99.90
2851;DHT22;1433;49.976;8.342;2022-07-29T07:24:03;22.20;99.90
2851;DHT22;1433;49.976;8.342;2022-07-29T07:26:30;22.30;99.90
2851;DHT22;1433;49.976;8.342;2022-07-29T07:28:58;22.40;99.90
2851;DHT22;1433;49.976;8.342;2022-07-29T07:31:27;22.50;99.90
2851;DHT22;1433;49.976;8.342;2022-07-29T07:33:53;22.60;99.90
2851;DHT22;1433;49.976;8.342;2022-07-29T07:36:19;22.60;99.90
2851;DHT22;1433;49.976;8.342;2022-07-29T07:38:45;22.70;99.90
2851;DHT22;1433;49.976;8.342;2022-07-29T07:41:11;22.70;99.90
2851;DHT22;1433;49.976;8.342;2022-07-29T07:43:37;22.80;99.90
2851;DHT22;1433;49.976;8.342;2022-07-29T07:46:04;22.90;99.90
2851;DHT22;1433;49.976;8.342;2022-07-29T07:48:30;22.90;99.90
2851;DHT22;1433;49.976;8.342;2022-07-29T07:50:56;23.00;99.90
2851;DHT22;1433;49.976;8.342;2022-07-29T07:53:22;22.90;99.90
2851;DHT22;1433;49.976;8.342;2022-07-29T07:55:48;23.00;99.90
2851;DHT22;1433;49.976;8.342;2022-07-29T07:58:15;23.20;99.90
2851;DHT22;1433;49.976;8.342;2022-07-29T08:00:42;23.30;99.90
2851;DHT22;1433;49.976;8.342;2022-07-29T08:03:08;23.40;99.90
2851;DHT22;1433;49.976;8.342;2022-07-29T08:05:34;23.50;99.90
2851;DHT22;1433;49.976;8.342;2022-07-29T08:08:01;23.70;99.90
2851;DHT22;1433;49.976;8.342;2022-07-29T08:10:28;23.80;99.90
2851;DHT22;1433;49.976;8.342;2022-07-29T08:13:12;23.80;99.90
2851;DHT22;1433;49.976;8.342;2022-07-29T08:15:39;23.80;99.90
2851;DHT22;1433;49.976;8.342;2022-07-29T08:18:07;23.90;99.90
2851;DHT22;1433;49.976;8.342;2022-07-29T08:20:33;23.90;99.90
2851;DHT22;1433;49.976;8.342;2022-07-29T08:23:02;24.00;99.90
2851;DHT22;1433;49.976;8.342;2022-07-29T08:25:28;24.00;99.90
2851;DHT22;1433;49.976;8.342;2022-07-29T08:27:54;24.20;99.90
2851;DHT22;1433;49.976;8.342;2022-07-29T08:30:21;24.30;99.90
2851;DHT22;1433;49.976;8.342;2022-07-29T08:32:48;24.50;99.90
2851;DHT22;1433;49.976;8.342;2022-07-29T08:35:15;24.50;99.90
2851;DHT22;1433;49.976;8.342;2022-07-29T08:37:41;24.70;99.90
2851;DHT22;1433;49.976;8.342;2022-07-29T08:40:08;24.80;99.90
2851;DHT22;1433;49.976;8.342;2022-07-29T08:42:35;24.70;99.90
2851;DHT22;1433;49.976;8.342;2022-07-29T08:45:02;24.70;99.90
2851;DHT22;1433;49.976;8.342;2022-07-29T08:47:29;24.90;99.90
2851;DHT22;1433;49.976;8.342;2022-07-29T08:49:55;25.00;99.90
2851;DHT22;1433;49.976;8.342;2022-07-29T08:52:26;24.90;99.90
2851;DHT22;1433;49.976;8.342;2022-07-29T08:54:53;24.60;99.90
2851;DHT22;1433;49.976;8.342;2022-07-29T08:57:19;24.80;99.90
2851;DHT22;1433;49.976;8.342;2022-07-29T08:59:48;25.00;99.90
2851;DHT22;1433;49.976;8.342;2022-07-29T09:02:22;25.20;99.90
2851;DHT22;1433;49.976;8.342;2022-07-29T09:04:46;25.40;99.90
2851;DHT22;1433;49.976;8.342;2022-07-29T09:07:15;25.50;99.90
2851;DHT22;1433;49.976;8.342;2022-07-29T09:09:42;25.50;99.90
2851;DHT22;1433;49.976;8.342;2022-07-29T09:12:10;25.70;99.90
2851;DHT22;1433;49.976;8.342;2022-07-29T09:14:41;25.80;99.90
2851;DHT22;1433;49.976;8.342;2022-07-29T09:17:07;26.10;99.90
2851;DHT22;1433;49.976;8.342;2022-07-29T09:19:35;26.20;99.90
2851;DHT22;1433;49.976;8.342;2022-07-29T09:22:04;26.10;99.90
2851;DHT22;1433;49.976;8.342;2022-07-29T09:29:39;26.00;99.90
2851;DHT22;1433;49.976;8.342;2022-07-29T09:32:08;26.20;99.90
2851;DHT22;1433;49.976;8.342;2022-07-29T09:34:35;26.20;99.90
2851;DHT22;1433;49.976;8.342;2022-07-29T09:37:02;26.20;99.90
2851;DHT22;1433;49.976;8.342;2022-07-29T09:39:39;26.00;99.90
2851;DHT22;1433;49.976;8.342;2022-07-29T09:42:07;26.30;99.90
2851;DHT22;1433;49.976;8.342;2022-07-29T09:44:42;26.60;99.90
2851;DHT22;1433;49.976;8.342;2022-07-29T09:47:10;26.80;99.90
2851;DHT22;1433;49.976;8.342;2022-07-29T09:49:56;27.10;99.90
2851;DHT22;1433;49.976;8.342;2022-07-29T09:52:29;27.20;99.90
2851;DHT22;1433;49.976;8.342;2022-07-29T09:54:52;27.50;99.90
2851;DHT22;1433;49.976;8.342;2022-07-29T09:57:27;27.90;99.90
2851;DHT22;1433;49.976;8.342;2022-07-29T10:00:08;28.40;99.90
2851;DHT22;1433;49.976;8.342;2022-07-29T10:02:39;28.90;99.90
2851;DHT22;1433;49.976;8.342;2022-07-29T10:05:21;28.70;99.90
2851;DHT22;1433;49.976;8.342;2022-07-29T10:07:53;28.80;99.90
2851;DHT22;1433;49.976;8.342;2022-07-29T10:12:56;28.20;99.90
2851;DHT22;1433;49.976;8.342;2022-07-29T10:15:24;28.60;99.90
2851;DHT22;1433;49.976;8.342;2022-07-29T10:17:51;28.80;99.90
2851;DHT22;1433;49.976;8.342;2022-07-29T10:20:19;29.00;99.90
2851;DHT22;1433;49.976;8.342;2022-07-29T10:22:46;29.10;99.90
2851;DHT22;1433;49.976;8.342;2022-07-29T10:25:15;29.20;99.90
2851;DHT22;1433;49.976;8.342;2022-07-29T10:27:43;29.00;99.90
2851;DHT22;1433;49.976;8.342;2022-07-29T10:30:11;28.60;99.90
2851;DHT22;1433;49.976;8.342;2022-07-29T10:44:09;29.60;99.90
2851;DHT22;1433;49.976;8.342;2022-07-29T10:46:38;29.70;99.90
2851;DHT22;1433;49.976;8.342;2022-07-29T10:49:18;30.00;99.90
2851;DHT22;1433;49.976;8.342;2022-07-29T10:51:55;29.80;99.90
2851;DHT22;1433;49.976;8.342;2022-07-29T10:54:40;30.40;99.90
2851;DHT22;1433;49.976;8.342;2022-07-29T10:57:23;31.00;99.90
2851;DHT22;1433;49.976;8.342;2022-07-29T10:59:43;31.90;99.90
2851;DHT22;1433;49.976;8.342;2022-07-29T11:05:07;35.50;99.90
2851;DHT22;1433;49.976;8.342;2022-07-29T11:07:36;36.80;99.90
2851;DHT22;1433;49.976;8.342;2022-07-29T11:12:46;38.70;99.90
2851;DHT22;1433;49.976;8.342;2022-07-29T11:15:18;39.00;99.90
2851;DHT22;1433;49.976;8.342;2022-07-29T11:22:59;35.20;99.90
2851;DHT22;1433;49.976;8.342;2022-07-29T11:25:26;35.70;99.90
2851;DHT22;1433;49.976;8.342;2022-07-29T11:27:54;35.20;99.90
2851;DHT22;1433;49.976;8.342;2022-07-29T11:30:45;34.40;99.90
2851;DHT22;1433;49.976;8.342;2022-07-29T11:32:52;35.80;99.90
2851;DHT22;1433;49.976;8.342;2022-07-29T11:35:23;35.90;99.90
2851;DHT22;1433;49.976;8.342;2022-07-29T11:38:24;36.50;99.90
2851;DHT22;1433;49.976;8.342;2022-07-29T11:43:47;39.10;99.90
2851;DHT22;1433;49.976;8.342;2022-07-29T11:46:16;39.80;99.90
2851;DHT22;1433;49.976;8.342;2022-07-29T11:48:43;40.30;99.90
2851;DHT22;1433;49.976;8.342;2022-07-29T11:51:10;40.00;99.90
2851;DHT22;1433;49.976;8.342;2022-07-29T11:53:38;40.10;99.90
2851;DHT22;1433;49.976;8.342;2022-07-29T11:56:07;38.10;99.90
2851;DHT22;1433;49.976;8.342;2022-07-29T11:58:34;36.20;99.90
2851;DHT22;1433;49.976;8.342;2022-07-29T12:01:01;37.90;99.90
2851;DHT22;1433;49.976;8.342;2022-07-29T12:03:28;39.80;99.90
2851;DHT22;1433;49.976;8.342;2022-07-29T12:05:54;41.10;99.90
2851;DHT22;1433;49.976;8.342;2022-07-29T12:08:22;42.20;99.90
2851;DHT22;1433;49.976;8.342;2022-07-29T12:10:50;41.50;99.90
2851;DHT22;1433;49.976;8.342;2022-07-29T12:13:18;41.40;99.90
2851;DHT22;1433;49.976;8.342;2022-07-29T12:15:56;40.80;99.90
2851;DHT22;1433;49.976;8.342;2022-07-29T12:18:26;40.40;99.90
2851;DHT22;1433;49.976;8.342;2022-07-29T12:21:01;41.10;99.90
2851;DHT22;1433;49.976;8.342;2022-07-29T12:23:30;41.10;99.90
2851;DHT22;1433;49.976;8.342;2022-07-29T12:25:57;39.90;99.90
2851;DHT22;1433;49.976;8.342;2022-07-29T12:28:24;40.70;99.90
2851;DHT22;1433;49.976;8.342;2022-07-29T12:30:50;39.70;99.90
2851;DHT22;1433;49.976;8.342;2022-07-29T12:35:49;38.80;99.90
2851;DHT22;1433;49.976;8.342;2022-07-29T12:38:17;39.10;99.90
2851;DHT22;1433;49.976;8.342;2022-07-29T12:40:46;39.40;99.90
2851;DHT22;1433;49.976;8.342;2022-07-29T12:43:15;40.30;99.90
2851;DHT22;1433;49.976;8.342;2022-07-29T12:45:45;40.30;99.90
2851;DHT22;1433;49.976;8.342;2022-07-29T12:48:12;40.40;99.90
2851;DHT22;1433;49.976;8.342;2022-07-29T12:50:59;39.50;99.90
2851;DHT22;1433;49.976;8.342;2022-07-29T12:53:26;40.10;99.90
2851;DHT22;1433;49.976;8.342;2022-07-29T12:55:53;41.80;99.90
2851;DHT22;1433;49.976;8.342;2022-07-29T12:58:28;39.90;99.90
2851;DHT22;1433;49.976;8.342;2022-07-29T13:03:54;38.30;99.90
2851;DHT22;1433;49.976;8.342;2022-07-29T13:09:16;37.70;99.90
2851;DHT22;1433;49.976;8.342;2022-07-29T13:11:48;38.50;99.90
2851;DHT22;1433;49.976;8.342;2022-07-29T13:17:07;40.70;99.90
2851;DHT22;1433;49.976;8.342;2022-07-29T13:19:42;40.00;99.90
2851;DHT22;1433;49.976;8.342;2022-07-29T13:22:12;38.70;99.90
2851;DHT22;1433;49.976;8.342;2022-07-29T13:27:18;37.50;99.90
2851;DHT22;1433;49.976;8.342;2022-07-29T13:29:45;36.90;99.90
2851;DHT22;1433;49.976;8.342;2022-07-29T13:32:13;36.60;99.90
2851;DHT22;1433;49.976;8.342;2022-07-29T13:34:39;36.50;99.90
2851;DHT22;1433;49.976;8.342;2022-07-29T13:37:06;35.90;99.90
2851;DHT22;1433;49.976;8.342;2022-07-29T13:39:32;35.90;99.90
2851;DHT22;1433;49.976;8.342;2022-07-29T13:41:59;36.30;99.90
2851;DHT22;1433;49.976;8.342;2022-07-29T13:44:25;36.40;99.90
2851;DHT22;1433;49.976;8.342;2022-07-29T13:46:51;36.20;99.90
2851;DHT22;1433;49.976;8.342;2022-07-29T13:49:17;34.40;99.90
2851;DHT22;1433;49.976;8.342;2022-07-29T13:51:43;33.20;99.90
2851;DHT22;1433;49.976;8.342;2022-07-29T13:54:09;31.30;99.90
2851;DHT22;1433;49.976;8.342;2022-07-29T13:56:35;31.20;99.90
2851;DHT22;1433;49.976;8.342;2022-07-29T13:59:02;31.30;99.90
2851;DHT22;1433;49.976;8.342;2022-07-29T14:01:28;30.80;99.90
2851;DHT22;1433;49.976;8.342;2022-07-29T14:03:56;30.50;99.90
2851;DHT22;1433;49.976;8.342;2022-07-29T14:06:22;30.50;99.90
2851;DHT22;1433;49.976;8.342;2022-07-29T14:08:48;30.10;99.90
2851;DHT22;1433;49.976;8.342;2022-07-29T14:11:14;29.70;99.90
2851;DHT22;1433;49.976;8.342;2022-07-29T14:13:40;29.70;99.90
2851;DHT22;1433;49.976;8.342;2022-07-29T14:16:07;29.50;99.90
2851;DHT22;1433;49.976;8.342;2022-07-29T14:18:33;29.50;99.90
2851;DHT22;1433;49.976;8.342;2022-07-29T14:20:59;28.80;99.90
2851;DHT22;1433;49.976;8.342;2022-07-29T14:23:25;28.60;99.90
2851;DHT22;1433;49.976;8.342;2022-07-29T14:25:52;28.60;99.90
2851;DHT22;1433;49.976;8.342;2022-07-29T14:28:18;28.50;99.90
2851;DHT22;1433;49.976;8.342;2022-07-29T14:30:44;28.50;99.90
2851;DHT22;1433;49.976;8.342;2022-07-29T14:33:12;28.80;99.90
2851;DHT22;1433;49.976;8.342;2022-07-29T14:35:38;29.00;99.90
2851;DHT22;1433;49.976;8.342;2022-07-29T14:38:04;29.10;99.90
2851;DHT22;1433;49.976;8.342;2022-07-29T14:40:31;29.20;99.90
2851;DHT22;1433;49.976;8.342;2022-07-29T14:42:57;29.30;99.90
2851;DHT22;1433;49.976;8.342;2022-07-29T14:45:23;29.30;99.90
2851;DHT22;1433;49.976;8.342;2022-07-29T14:47:49;29.10;99.90
2851;DHT22;1433;49.976;8.342;2022-07-29T14:50:16;28.90;99.90
2851;DHT22;1433;49.976;8.342;2022-07-29T14:52:44;28.70;99.90
2851;DHT22;1433;49.976;8.342;2022-07-29T14:55:10;28.80;99.90
2851;DHT22;1433;49.976;8.342;2022-07-29T14:57:36;28.90;99.90
2851;DHT22;1433;49.976;8.342;2022-07-29T15:00:05;29.20;99.90
2851;DHT22;1433;49.976;8.342;2022-07-29T15:02:34;29.40;99.90
2851;DHT22;1433;49.976;8.342;2022-07-29T15:05:00;29.50;99.90
2851;DHT22;1433;49.976;8.342;2022-07-29T15:07:27;29.30;99.90
2851;DHT22;1433;49.976;8.342;2022-07-29T15:09:53;29.20;99.90
2851;DHT22;1433;49.976;8.342;2022-07-29T15:12:19;29.10;99.90
2851;DHT22;1433;49.976;8.342;2022-07-29T15:14:45;29.20;99.90
2851;DHT22;1433;49.976;8.342;2022-07-29T15:17:12;29.30;99.90
2851;DHT22;1433;49.976;8.342;2022-07-29T15:19:38;29.10;99.90
2851;DHT22;1433;49.976;8.342;2022-07-29T15:22:04;28.60;99.90
2851;DHT22;1433;49.976;8.342;2022-07-29T15:24:31;27.90;99.90
2851;DHT22;1433;49.976;8.342;2022-07-29T15:26:57;27.40;99.90
2851;DHT22;1433;49.976;8.342;2022-07-29T15:29:23;26.90;99.90
2851;DHT22;1433;49.976;8.342;2022-07-29T15:31:49;26.80;99.90
2851;DHT22;1433;49.976;8.342;2022-07-29T15:34:15;26.40;99.90
2851;DHT22;1433;49.976;8.342;2022-07-29T15:36:41;25.70;99.90
2851;DHT22;1433;49.976;8.342;2022-07-29T15:39:08;25.40;99.90
2851;DHT22;1433;49.976;8.342;2022-07-29T15:41:34;25.50;99.90
2851;DHT22;1433;49.976;8.342;2022-07-29T15:44:01;25.60;99.90
2851;DHT22;1433;49.976;8.342;2022-07-29T15:46:27;25.70;99.90
2851;DHT22;1433;49.976;8.342;2022-07-29T15:49:12;25.80;99.90
2851;DHT22;1433;49.976;8.342;2022-07-29T15:51:38;26.00;99.90
2851;DHT22;1433;49.976;8.342;2022-07-29T15:54:04;25.70;99.90
2851;DHT22;1433;49.976;8.342;2022-07-29T15:56:30;25.60;99.90
2851;DHT22;1433;49.976;8.342;2022-07-29T15:58:57;25.50;99.90
2851;DHT22;1433;49.976;8.342;2022-07-29T16:01:23;25.60;99.90
2851;DHT22;1433;49.976;8.342;2022-07-29T16:03:50;25.70;99.90
2851;DHT22;1433;49.976;8.342;2022-07-29T16:06:16;25.80;99.90
2851;DHT22;1433;49.976;8.342;2022-07-29T16:08:42;26.00;99.90
2851;DHT22;1433;49.976;8.342;2022-07-29T16:11:08;26.30;99.90
2851;DHT22;1433;49.976;8.342;2022-07-29T16:13:34;26.50;99.90
2851;DHT22;1433;49.976;8.342;2022-07-29T16:16:01;27.00;99.90
2851;DHT22;1433;49.976;8.342;2022-07-29T16:18:27;28.00;99.90
2851;DHT22;1433;49.976;8.342;2022-07-29T16:20:53;28.90;99.90
2851;DHT22;1433;49.976;8.342;2022-07-29T16:23:19;29.20;99.90
2851;DHT22;1433;49.976;8.342;2022-07-29T16:25:45;29.00;99.90
2851;DHT22;1433;49.976;8.342;2022-07-29T16:28:11;28.70;99.90
2851;DHT22;1433;49.976;8.342;2022-07-29T16:30:38;29.60;99.90
2851;DHT22;1433;49.976;8.342;2022-07-29T16:33:04;30.60;99.90
2851;DHT22;1433;49.976;8.342;2022-07-29T16:35:30;30.60;99.90
2851;DHT22;1433;49.976;8.342;2022-07-29T16:37:56;30.10;99.90
2851;DHT22;1433;49.976;8.342;2022-07-29T16:40:23;29.80;99.90
2851;DHT22;1433;49.976;8.342;2022-07-29T16:42:49;29.20;99.90
2851;DHT22;1433;49.976;8.342;2022-07-29T16:45:15;28.40;99.90
2851;DHT22;1433;49.976;8.342;2022-07-29T16:47:42;28.20;99.90
2851;DHT22;1433;49.976;8.342;2022-07-29T16:50:09;27.70;99.90
2851;DHT22;1433;49.976;8.342;2022-07-29T16:52:35;27.40;99.90
2851;DHT22;1433;49.976;8.342;2022-07-29T16:55:03;27.10;99.90
2851;DHT22;1433;49.976;8.342;2022-07-29T16:57:30;27.00;99.90
2851;DHT22;1433;49.976;8.342;2022-07-29T16:59:56;26.70;99.90
2851;DHT22;1433;49.976;8.342;2022-07-29T17:02:22;26.40;99.90
2851;DHT22;1433;49.976;8.342;2022-07-29T17:04:48;26.10;99.90
2851;DHT22;1433;49.976;8.342;2022-07-29T17:07:14;26.00;99.90
2851;DHT22;1433;49.976;8.342;2022-07-29T17:09:41;25.90;99.90